Accueil
METAR-TAF:

METAR-TAF

Aéroports :

Aéroport de Tomsk

Tomsk, Russie

latitude: 56-23-12N, longitude: 085-12-38E, altitude: 182 m

Observation

Le bulletin a été fait il y a 53 minutes, à 06:00 UTC
Vent 2 kt de direction variable
Température 27°C
Humidité 48%
Pression 1008 hPa
Visibilité 10 km ou plus
Nuages épars à une hauteur de 4600 ft

METAR: UNTT 140600Z VRB01MPS 9999 SCT046 27/15 Q1008 R21/090060 NOSIG RMK QFE740

Heure: 13:53 (06:53 UTC)

Prévision

Le bulletin a été fait il y a 1 heure et 53 minutes, à 05:00 UTC
Prévision valable du 14 à 06 UTC au 14 à 15 UTC
Vent 6 kt de nord/nord-est avec des rafales jusqu'à 16 kt
Visibilité 10 km ou plus
Nuages épars à une hauteur de 4000 ft
Temporairement
du 14 à 06 UTC au 14 à 09 UTC
Vent 6 kt de est

TAF: UNTT 140500Z 1406/1415 02003G08MPS 9999 SCT040 TEMPO 1406/1409 08003MPS

Observations et prévisions météorologiques de plus de 4000 aéroports (messages METAR et TAF).

Les stations disponibles sont représentées par des disques jaunes et rouges sur la carte.

Passer la souris dessus pour voir le nom de la station.

Cliquer dessus pour voir les observations et prévisions météorologiques.

Pour changer de carte: cliquez sur les boutons verts avec une croix noire pour zoomer, sur le bouton vert avec un tiret pour effectuer un zoom arrière, ou sur les flèches vertes pour les cartes adjacentes.


METAR-TAF: